sensor_id;sensor_type;location;lat;lon;timestamp;P1;durP1;ratioP1;P2;durP2;ratioP2
21959;SDS011;11144;43.030;25.108;2023-02-02T00:00:57;22.92;;;10.32;;
21959;SDS011;11144;43.030;25.108;2023-02-02T00:02:29;25.20;;;12.27;;
21959;SDS011;11144;43.030;25.108;2023-02-02T00:04:03;20.17;;;10.63;;
21959;SDS011;11144;43.030;25.108;2023-02-02T00:05:36;16.60;;;9.43;;
21959;SDS011;11144;43.030;25.108;2023-02-02T00:07:08;16.08;;;7.57;;
21959;SDS011;11144;43.030;25.108;2023-02-02T00:08:42;14.68;;;7.70;;
21959;SDS011;11144;43.030;25.108;2023-02-02T00:10:14;18.45;;;8.30;;
21959;SDS011;11144;43.030;25.108;2023-02-02T00:11:49;15.95;;;7.65;;
21959;SDS011;11144;43.030;25.108;2023-02-02T00:13:23;15.82;;;8.07;;
21959;SDS011;11144;43.030;25.108;2023-02-02T00:14:55;15.02;;;7.30;;
21959;SDS011;11144;43.030;25.108;2023-02-02T00:16:35;15.10;;;5.82;;
21959;SDS011;11144;43.030;25.108;2023-02-02T00:18:10;13.20;;;6.05;;
21959;SDS011;11144;43.030;25.108;2023-02-02T00:19:43;10.20;;;5.15;;
21959;SDS011;11144;43.030;25.108;2023-02-02T00:21:17;12.50;;;5.85;;
21959;SDS011;11144;43.030;25.108;2023-02-02T00:22:50;15.70;;;6.80;;
21959;SDS011;11144;43.030;25.108;2023-02-02T00:24:23;19.00;;;6.80;;
21959;SDS011;11144;43.030;25.108;2023-02-02T00:25:57;20.70;;;8.63;;
21959;SDS011;11144;43.030;25.108;2023-02-02T00:27:30;26.27;;;9.68;;
21959;SDS011;11144;43.030;25.108;2023-02-02T00:29:04;19.98;;;9.15;;
21959;SDS011;11144;43.030;25.108;2023-02-02T00:30:39;29.77;;;11.45;;
21959;SDS011;11144;43.030;25.108;2023-02-02T00:32:11;24.90;;;11.60;;
21959;SDS011;11144;43.030;25.108;2023-02-02T00:33:44;19.25;;;9.27;;
21959;SDS011;11144;43.030;25.108;2023-02-02T00:35:17;18.83;;;9.25;;
21959;SDS011;11144;43.030;25.108;2023-02-02T00:36:51;15.23;;;8.65;;
21959;SDS011;11144;43.030;25.108;2023-02-02T00:38:25;47.22;;;17.98;;
21959;SDS011;11144;43.030;25.108;2023-02-02T00:39:58;22.77;;;10.15;;
21959;SDS011;11144;43.030;25.108;2023-02-02T00:41:31;14.93;;;7.43;;
21959;SDS011;11144;43.030;25.108;2023-02-02T00:43:05;17.65;;;7.82;;
21959;SDS011;11144;43.030;25.108;2023-02-02T00:44:38;21.08;;;8.93;;
21959;SDS011;11144;43.030;25.108;2023-02-02T00:46:29;19.70;;;8.43;;
21959;SDS011;11144;43.030;25.108;2023-02-02T00:48:02;23.90;;;9.57;;
21959;SDS011;11144;43.030;25.108;2023-02-02T00:49:35;30.73;;;10.57;;
21959;SDS011;11144;43.030;25.108;2023-02-02T00:51:09;27.45;;;10.43;;
21959;SDS011;11144;43.030;25.108;2023-02-02T00:52:42;13.60;;;6.75;;
21959;SDS011;11144;43.030;25.108;2023-02-02T00:54:15;24.05;;;10.50;;
21959;SDS011;11144;43.030;25.108;2023-02-02T00:55:48;20.88;;;9.25;;
21959;SDS011;11144;43.030;25.108;2023-02-02T00:57:21;24.15;;;9.90;;
21959;SDS011;11144;43.030;25.108;2023-02-02T00:58:56;16.55;;;8.00;;
21959;SDS011;11144;43.030;25.108;2023-02-02T01:00:29;12.10;;;5.68;;
21959;SDS011;11144;43.030;25.108;2023-02-02T01:02:03;14.25;;;6.32;;
21959;SDS011;11144;43.030;25.108;2023-02-02T01:03:36;14.60;;;7.53;;
21959;SDS011;11144;43.030;25.108;2023-02-02T01:05:10;13.82;;;5.85;;
21959;SDS011;11144;43.030;25.108;2023-02-02T01:06:44;9.00;;;4.75;;
21959;SDS011;11144;43.030;25.108;2023-02-02T01:08:17;8.32;;;4.60;;
21959;SDS011;11144;43.030;25.108;2023-02-02T01:09:50;10.27;;;5.10;;
21959;SDS011;11144;43.030;25.108;2023-02-02T01:11:24;12.82;;;5.53;;
21959;SDS011;11144;43.030;25.108;2023-02-02T01:12:57;11.45;;;6.30;;
21959;SDS011;11144;43.030;25.108;2023-02-02T01:14:32;10.90;;;5.18;;
21959;SDS011;11144;43.030;25.108;2023-02-02T01:16:04;14.63;;;5.80;;
21959;SDS011;11144;43.030;25.108;2023-02-02T01:17:38;11.50;;;5.35;;
21959;SDS011;11144;43.030;25.108;2023-02-02T01:19:12;18.08;;;6.05;;
21959;SDS011;11144;43.030;25.108;2023-02-02T01:20:46;11.85;;;5.45;;
21959;SDS011;11144;43.030;25.108;2023-02-02T01:22:19;11.70;;;5.65;;
21959;SDS011;11144;43.030;25.108;2023-02-02T01:23:53;15.73;;;6.90;;
21959;SDS011;11144;43.030;25.108;2023-02-02T01:25:26;24.40;;;11.25;;
21959;SDS011;11144;43.030;25.108;2023-02-02T01:27:01;22.58;;;8.65;;
21959;SDS011;11144;43.030;25.108;2023-02-02T01:28:34;19.20;;;8.55;;
21959;SDS011;11144;43.030;25.108;2023-02-02T01:30:09;18.15;;;8.57;;
21959;SDS011;11144;43.030;25.108;2023-02-02T01:31:43;16.15;;;7.53;;
21959;SDS011;11144;43.030;25.108;2023-02-02T01:33:17;18.92;;;8.18;;
21959;SDS011;11144;43.030;25.108;2023-02-02T01:34:50;22.25;;;8.65;;
21959;SDS011;11144;43.030;25.108;2023-02-02T01:36:23;11.55;;;6.05;;
21959;SDS011;11144;43.030;25.108;2023-02-02T01:37:57;14.52;;;6.80;;
21959;SDS011;11144;43.030;25.108;2023-02-02T01:39:31;25.67;;;12.15;;
21959;SDS011;11144;43.030;25.108;2023-02-02T01:41:04;26.27;;;11.60;;
21959;SDS011;11144;43.030;25.108;2023-02-02T01:42:37;24.02;;;11.23;;
21959;SDS011;11144;43.030;25.108;2023-02-02T01:46:24;20.88;;;8.85;;
21959;SDS011;11144;43.030;25.108;2023-02-02T01:48:00;17.42;;;8.73;;
21959;SDS011;11144;43.030;25.108;2023-02-02T01:49:33;19.27;;;8.70;;
21959;SDS011;11144;43.030;25.108;2023-02-02T01:51:06;16.92;;;7.00;;
21959;SDS011;11144;43.030;25.108;2023-02-02T01:52:44;20.95;;;9.88;;
21959;SDS011;11144;43.030;25.108;2023-02-02T01:54:22;23.80;;;10.02;;
21959;SDS011;11144;43.030;25.108;2023-02-02T01:56:04;33.28;;;13.82;;
21959;SDS011;11144;43.030;25.108;2023-02-02T01:57:40;23.73;;;9.98;;
21959;SDS011;11144;43.030;25.108;2023-02-02T01:59:15;13.60;;;7.43;;
21959;SDS011;11144;43.030;25.108;2023-02-02T02:00:49;12.02;;;5.90;;
21959;SDS011;11144;43.030;25.108;2023-02-02T02:02:26;11.38;;;5.55;;
21959;SDS011;11144;43.030;25.108;2023-02-02T02:04:00;13.45;;;5.57;;
21959;SDS011;11144;43.030;25.108;2023-02-02T02:05:35;7.93;;;4.47;;
21959;SDS011;11144;43.030;25.108;2023-02-02T02:07:11;10.30;;;5.25;;
21959;SDS011;11144;43.030;25.108;2023-02-02T02:08:45;6.32;;;3.90;;
21959;SDS011;11144;43.030;25.108;2023-02-02T02:10:23;9.65;;;4.55;;
21959;SDS011;11144;43.030;25.108;2023-02-02T02:11:56;13.65;;;6.47;;
21959;SDS011;11144;43.030;25.108;2023-02-02T02:13:30;14.57;;;6.65;;
21959;SDS011;11144;43.030;25.108;2023-02-02T02:15:24;18.95;;;8.02;;
21959;SDS011;11144;43.030;25.108;2023-02-02T02:17:21;15.48;;;7.38;;
21959;SDS011;11144;43.030;25.108;2023-02-02T02:19:12;13.55;;;7.15;;
21959;SDS011;11144;43.030;25.108;2023-02-02T02:21:08;9.43;;;5.53;;
21959;SDS011;11144;43.030;25.108;2023-02-02T02:23:30;6.50;;;3.83;;
21959;SDS011;11144;43.030;25.108;2023-02-02T02:25:45;5.03;;;2.70;;
21959;SDS011;11144;43.030;25.108;2023-02-02T02:30:23;8.52;;;4.90;;
21959;SDS011;11144;43.030;25.108;2023-02-02T02:32:23;8.93;;;4.72;;
21959;SDS011;11144;43.030;25.108;2023-02-02T02:34:04;9.18;;;3.40;;
21959;SDS011;11144;43.030;25.108;2023-02-02T02:35:41;6.22;;;4.00;;
21959;SDS011;11144;43.030;25.108;2023-02-02T02:37:27;5.85;;;3.10;;
21959;SDS011;11144;43.030;25.108;2023-02-02T02:39:06;5.82;;;2.60;;
21959;SDS011;11144;43.030;25.108;2023-02-02T02:40:45;5.20;;;3.20;;
21959;SDS011;11144;43.030;25.108;2023-02-02T02:42:22;5.53;;;3.67;;
21959;SDS011;11144;43.030;25.108;2023-02-02T02:43:59;6.50;;;3.30;;
21959;SDS011;11144;43.030;25.108;2023-02-02T02:45:36;3.85;;;2.53;;
21959;SDS011;11144;43.030;25.108;2023-02-02T02:47:12;5.45;;;3.22;;
21959;SDS011;11144;43.030;25.108;2023-02-02T02:48:47;4.65;;;2.50;;
21959;SDS011;11144;43.030;25.108;2023-02-02T02:50:22;11.25;;;4.90;;
21959;SDS011;11144;43.030;25.108;2023-02-02T02:51:55;8.90;;;4.03;;
21959;SDS011;11144;43.030;25.108;2023-02-02T02:53:35;9.05;;;4.00;;
21959;SDS011;11144;43.030;25.108;2023-02-02T02:55:09;7.40;;;3.15;;
21959;SDS011;11144;43.030;25.108;2023-02-02T02:56:53;7.10;;;2.92;;
21959;SDS011;11144;43.030;25.108;2023-02-02T02:58:40;9.10;;;3.13;;
21959;SDS011;11144;43.030;25.108;2023-02-02T03:00:24;7.88;;;3.53;;
21959;SDS011;11144;43.030;25.108;2023-02-02T03:02:11;50.67;;;20.88;;
21959;SDS011;11144;43.030;25.108;2023-02-02T03:04:00;38.63;;;17.15;;
21959;SDS011;11144;43.030;25.108;2023-02-02T03:05:43;13.35;;;8.10;;
21959;SDS011;11144;43.030;25.108;2023-02-02T03:07:25;13.18;;;6.35;;
21959;SDS011;11144;43.030;25.108;2023-02-02T03:09:03;9.82;;;5.45;;
21959;SDS011;11144;43.030;25.108;2023-02-02T03:10:42;12.73;;;6.82;;
21959;SDS011;11144;43.030;25.108;2023-02-02T03:12:17;12.10;;;5.55;;
21959;SDS011;11144;43.030;25.108;2023-02-02T03:13:50;11.10;;;6.03;;
21959;SDS011;11144;43.030;25.108;2023-02-02T03:15:24;8.65;;;4.22;;
21959;SDS011;11144;43.030;25.108;2023-02-02T03:16:57;8.52;;;4.30;;
21959;SDS011;11144;43.030;25.108;2023-02-02T03:18:30;11.52;;;4.85;;
21959;SDS011;11144;43.030;25.108;2023-02-02T03:20:06;12.05;;;5.28;;
21959;SDS011;11144;43.030;25.108;2023-02-02T03:21:40;17.77;;;8.05;;
21959;SDS011;11144;43.030;25.108;2023-02-02T03:23:14;19.25;;;9.07;;
21959;SDS011;11144;43.030;25.108;2023-02-02T03:24:47;33.08;;;14.40;;
21959;SDS011;11144;43.030;25.108;2023-02-02T03:26:20;18.48;;;9.15;;
21959;SDS011;11144;43.030;25.108;2023-02-02T03:27:54;18.17;;;9.80;;
21959;SDS011;11144;43.030;25.108;2023-02-02T03:29:26;40.42;;;19.40;;
21959;SDS011;11144;43.030;25.108;2023-02-02T03:31:00;36.38;;;17.30;;
21959;SDS011;11144;43.030;25.108;2023-02-02T03:32:34;54.03;;;25.55;;
21959;SDS011;11144;43.030;25.108;2023-02-02T03:34:07;68.03;;;33.58;;
21959;SDS011;11144;43.030;25.108;2023-02-02T03:35:42;51.78;;;29.38;;
21959;SDS011;11144;43.030;25.108;2023-02-02T03:37:15;57.72;;;27.88;;
21959;SDS011;11144;43.030;25.108;2023-02-02T03:38:48;57.15;;;27.55;;
21959;SDS011;11144;43.030;25.108;2023-02-02T03:40:21;48.08;;;25.48;;
21959;SDS011;11144;43.030;25.108;2023-02-02T03:41:55;21.60;;;12.65;;
21959;SDS011;11144;43.030;25.108;2023-02-02T03:43:28;17.13;;;10.32;;
21959;SDS011;11144;43.030;25.108;2023-02-02T03:45:00;21.52;;;11.55;;
21959;SDS011;11144;43.030;25.108;2023-02-02T03:46:33;27.92;;;12.25;;
21959;SDS011;11144;43.030;25.108;2023-02-02T03:48:07;18.88;;;9.82;;
21959;SDS011;11144;43.030;25.108;2023-02-02T03:49:40;20.23;;;10.35;;
21959;SDS011;11144;43.030;25.108;2023-02-02T03:51:14;22.15;;;12.05;;
21959;SDS011;11144;43.030;25.108;2023-02-02T03:52:47;19.73;;;11.32;;
21959;SDS011;11144;43.030;25.108;2023-02-02T03:54:19;22.08;;;10.57;;
21959;SDS011;11144;43.030;25.108;2023-02-02T03:55:52;24.85;;;11.00;;
21959;SDS011;11144;43.030;25.108;2023-02-02T03:57:26;23.58;;;9.25;;
21959;SDS011;11144;43.030;25.108;2023-02-02T03:58:59;14.60;;;7.13;;
21959;SDS011;11144;43.030;25.108;2023-02-02T04:00:32;14.35;;;6.65;;
21959;SDS011;11144;43.030;25.108;2023-02-02T04:02:05;21.45;;;8.23;;
21959;SDS011;11144;43.030;25.108;2023-02-02T04:03:38;18.95;;;7.72;;
21959;SDS011;11144;43.030;25.108;2023-02-02T04:05:12;15.25;;;5.78;;
21959;SDS011;11144;43.030;25.108;2023-02-02T04:06:46;13.63;;;6.40;;
21959;SDS011;11144;43.030;25.108;2023-02-02T04:08:18;14.70;;;6.90;;
21959;SDS011;11144;43.030;25.108;2023-02-02T04:09:52;9.95;;;4.53;;
21959;SDS011;11144;43.030;25.108;2023-02-02T04:11:25;7.93;;;4.32;;
21959;SDS011;11144;43.030;25.108;2023-02-02T04:12:57;7.45;;;3.30;;
21959;SDS011;11144;43.030;25.108;2023-02-02T04:14:30;7.90;;;3.25;;
21959;SDS011;11144;43.030;25.108;2023-02-02T04:16:04;5.95;;;2.60;;
21959;SDS011;11144;43.030;25.108;2023-02-02T04:17:38;4.68;;;2.67;;
21959;SDS011;11144;43.030;25.108;2023-02-02T04:19:11;6.10;;;2.78;;
21959;SDS011;11144;43.030;25.108;2023-02-02T04:20:44;3.13;;;2.08;;
21959;SDS011;11144;43.030;25.108;2023-02-02T04:22:19;6.90;;;2.70;;
21959;SDS011;11144;43.030;25.108;2023-02-02T04:23:52;22.58;;;11.50;;
21959;SDS011;11144;43.030;25.108;2023-02-02T04:25:25;33.22;;;14.80;;
21959;SDS011;11144;43.030;25.108;2023-02-02T04:26:58;10.70;;;4.60;;
21959;SDS011;11144;43.030;25.108;2023-02-02T04:28:32;6.05;;;2.92;;
21959;SDS011;11144;43.030;25.108;2023-02-02T04:30:05;6.45;;;3.40;;
21959;SDS011;11144;43.030;25.108;2023-02-02T04:31:39;11.80;;;4.47;;
21959;SDS011;11144;43.030;25.108;2023-02-02T04:33:12;11.07;;;5.15;;
21959;SDS011;11144;43.030;25.108;2023-02-02T04:34:45;10.23;;;5.03;;
21959;SDS011;11144;43.030;25.108;2023-02-02T04:36:19;12.00;;;5.55;;
21959;SDS011;11144;43.030;25.108;2023-02-02T04:37:55;21.73;;;7.15;;
21959;SDS011;11144;43.030;25.108;2023-02-02T04:39:28;18.35;;;7.28;;
21959;SDS011;11144;43.030;25.108;2023-02-02T04:41:04;67.43;;;20.25;;
21959;SDS011;11144;43.030;25.108;2023-02-02T04:42:38;54.30;;;19.33;;
21959;SDS011;11144;43.030;25.108;2023-02-02T04:44:12;43.65;;;16.95;;
21959;SDS011;11144;43.030;25.108;2023-02-02T04:45:46;33.63;;;13.90;;
21959;SDS011;11144;43.030;25.108;2023-02-02T04:47:20;27.48;;;10.40;;
21959;SDS011;11144;43.030;25.108;2023-02-02T04:48:53;24.52;;;10.77;;
21959;SDS011;11144;43.030;25.108;2023-02-02T04:50:27;26.38;;;10.10;;
21959;SDS011;11144;43.030;25.108;2023-02-02T04:52:00;20.52;;;8.57;;
21959;SDS011;11144;43.030;25.108;2023-02-02T04:53:35;30.15;;;11.98;;
21959;SDS011;11144;43.030;25.108;2023-02-02T04:55:08;43.90;;;16.98;;
21959;SDS011;11144;43.030;25.108;2023-02-02T04:56:41;56.35;;;19.65;;
21959;SDS011;11144;43.030;25.108;2023-02-02T04:58:13;38.60;;;15.30;;
21959;SDS011;11144;43.030;25.108;2023-02-02T04:59:47;45.78;;;15.48;;
21959;SDS011;11144;43.030;25.108;2023-02-02T05:01:20;44.90;;;16.92;;
21959;SDS011;11144;43.030;25.108;2023-02-02T05:02:54;32.85;;;12.82;;
21959;SDS011;11144;43.030;25.108;2023-02-02T05:04:27;52.28;;;17.10;;
21959;SDS011;11144;43.030;25.108;2023-02-02T05:06:01;34.35;;;13.32;;
21959;SDS011;11144;43.030;25.108;2023-02-02T05:07:34;32.40;;;13.13;;
21959;SDS011;11144;43.030;25.108;2023-02-02T05:09:09;15.15;;;6.00;;
21959;SDS011;11144;43.030;25.108;2023-02-02T05:10:43;44.78;;;15.57;;
21959;SDS011;11144;43.030;25.108;2023-02-02T05:12:16;32.20;;;14.13;;
21959;SDS011;11144;43.030;25.108;2023-02-02T05:13:49;26.23;;;11.90;;
21959;SDS011;11144;43.030;25.108;2023-02-02T05:15:23;30.42;;;11.15;;
21959;SDS011;11144;43.030;25.108;2023-02-02T05:16:57;51.63;;;17.65;;
21959;SDS011;11144;43.030;25.108;2023-02-02T05:18:30;21.83;;;9.55;;
21959;SDS011;11144;43.030;25.108;2023-02-02T05:20:03;24.80;;;10.43;;
21959;SDS011;11144;43.030;25.108;2023-02-02T05:21:36;44.45;;;18.33;;
21959;SDS011;11144;43.030;25.108;2023-02-02T05:23:10;42.60;;;16.27;;
21959;SDS011;11144;43.030;25.108;2023-02-02T05:24:44;16.50;;;8.23;;
21959;SDS011;11144;43.030;25.108;2023-02-02T05:26:18;43.85;;;16.95;;
21959;SDS011;11144;43.030;25.108;2023-02-02T05:27:54;24.63;;;11.13;;
21959;SDS011;11144;43.030;25.108;2023-02-02T05:29:27;20.58;;;9.35;;
21959;SDS011;11144;43.030;25.108;2023-02-02T05:31:04;45.63;;;18.10;;
21959;SDS011;11144;43.030;25.108;2023-02-02T05:32:38;38.03;;;15.07;;
21959;SDS011;11144;43.030;25.108;2023-02-02T05:34:11;42.00;;;18.17;;
21959;SDS011;11144;43.030;25.108;2023-02-02T05:35:44;31.77;;;13.98;;
21959;SDS011;11144;43.030;25.108;2023-02-02T05:37:18;27.90;;;12.68;;
21959;SDS011;11144;43.030;25.108;2023-02-02T05:38:51;25.60;;;11.93;;
21959;SDS011;11144;43.030;25.108;2023-02-02T05:40:26;14.88;;;7.32;;
21959;SDS011;11144;43.030;25.108;2023-02-02T05:41:59;7.95;;;4.72;;
21959;SDS011;11144;43.030;25.108;2023-02-02T05:43:32;18.88;;;6.95;;
21959;SDS011;11144;43.030;25.108;2023-02-02T05:45:06;18.25;;;7.47;;
21959;SDS011;11144;43.030;25.108;2023-02-02T05:46:40;14.68;;;7.00;;
21959;SDS011;11144;43.030;25.108;2023-02-02T05:48:15;15.70;;;7.43;;
21959;SDS011;11144;43.030;25.108;2023-02-02T05:49:48;9.68;;;4.68;;
21959;SDS011;11144;43.030;25.108;2023-02-02T05:51:22;5.70;;;3.10;;
21959;SDS011;11144;43.030;25.108;2023-02-02T05:52:58;8.18;;;3.65;;
21959;SDS011;11144;43.030;25.108;2023-02-02T05:54:31;6.78;;;3.20;;
21959;SDS011;11144;43.030;25.108;2023-02-02T05:56:06;6.97;;;3.20;;
21959;SDS011;11144;43.030;25.108;2023-02-02T05:57:39;7.93;;;2.80;;
21959;SDS011;11144;43.030;25.108;2023-02-02T05:59:13;6.88;;;3.08;;
21959;SDS011;11144;43.030;25.108;2023-02-02T06:00:46;6.18;;;3.25;;
21959;SDS011;11144;43.030;25.108;2023-02-02T06:02:19;13.55;;;3.30;;
21959;SDS011;11144;43.030;25.108;2023-02-02T06:03:52;16.00;;;5.50;;
21959;SDS011;11144;43.030;25.108;2023-02-02T06:05:26;9.05;;;4.13;;
21959;SDS011;11144;43.030;25.108;2023-02-02T06:06:59;8.68;;;4.63;;
21959;SDS011;11144;43.030;25.108;2023-02-02T06:08:32;11.30;;;6.07;;
21959;SDS011;11144;43.030;25.108;2023-02-02T06:10:06;9.18;;;4.95;;
21959;SDS011;11144;43.030;25.108;2023-02-02T06:11:41;9.13;;;5.10;;
21959;SDS011;11144;43.030;25.108;2023-02-02T06:13:15;11.88;;;5.82;;
21959;SDS011;11144;43.030;25.108;2023-02-02T06:14:48;12.70;;;5.97;;
21959;SDS011;11144;43.030;25.108;2023-02-02T06:16:21;22.13;;;8.98;;
21959;SDS011;11144;43.030;25.108;2023-02-02T06:17:55;14.38;;;6.80;;
21959;SDS011;11144;43.030;25.108;2023-02-02T06:19:29;23.63;;;10.82;;
21959;SDS011;11144;43.030;25.108;2023-02-02T06:21:02;84.70;;;31.05;;
21959;SDS011;11144;43.030;25.108;2023-02-02T06:22:37;38.35;;;17.63;;
21959;SDS011;11144;43.030;25.108;2023-02-02T06:24:10;33.80;;;16.67;;
21959;SDS011;11144;43.030;25.108;2023-02-02T06:25:43;34.88;;;16.67;;
21959;SDS011;11144;43.030;25.108;2023-02-02T06:27:18;25.33;;;13.07;;
21959;SDS011;11144;43.030;25.108;2023-02-02T06:28:51;65.88;;;26.77;;
21959;SDS011;11144;43.030;25.108;2023-02-02T06:30:25;54.75;;;22.88;;
21959;SDS011;11144;43.030;25.108;2023-02-02T06:31:59;51.60;;;19.30;;
21959;SDS011;11144;43.030;25.108;2023-02-02T06:33:34;25.75;;;12.18;;
21959;SDS011;11144;43.030;25.108;2023-02-02T06:35:07;33.08;;;14.23;;
21959;SDS011;11144;43.030;25.108;2023-02-02T06:36:41;97.00;;;44.78;;
21959;SDS011;11144;43.030;25.108;2023-02-02T06:38:14;55.05;;;25.30;;
21959;SDS011;11144;43.030;25.108;2023-02-02T06:39:47;48.22;;;24.15;;
21959;SDS011;11144;43.030;25.108;2023-02-02T06:41:21;48.00;;;21.30;;
21959;SDS011;11144;43.030;25.108;2023-02-02T06:42:56;55.13;;;24.58;;
21959;SDS011;11144;43.030;25.108;2023-02-02T06:44:30;37.70;;;16.67;;
21959;SDS011;11144;43.030;25.108;2023-02-02T06:46:03;36.05;;;18.17;;
21959;SDS011;11144;43.030;25.108;2023-02-02T06:47:37;31.40;;;15.38;;
21959;SDS011;11144;43.030;25.108;2023-02-02T06:49:10;53.03;;;22.83;;
21959;SDS011;11144;43.030;25.108;2023-02-02T06:50:43;32.17;;;15.60;;
21959;SDS011;11144;43.030;25.108;2023-02-02T06:52:16;27.88;;;11.80;;
21959;SDS011;11144;43.030;25.108;2023-02-02T06:53:50;37.47;;;16.52;;
21959;SDS011;11144;43.030;25.108;2023-02-02T06:55:23;24.13;;;11.35;;
21959;SDS011;11144;43.030;25.108;2023-02-02T06:56:56;16.65;;;8.55;;
21959;SDS011;11144;43.030;25.108;2023-02-02T06:58:32;26.52;;;9.48;;
21959;SDS011;11144;43.030;25.108;2023-02-02T07:00:06;13.52;;;7.72;;
21959;SDS011;11144;43.030;25.108;2023-02-02T07:01:40;11.60;;;6.60;;
21959;SDS011;11144;43.030;25.108;2023-02-02T07:03:14;15.13;;;6.18;;
21959;SDS011;11144;43.030;25.108;2023-02-02T07:04:47;21.17;;;9.30;;
21959;SDS011;11144;43.030;25.108;2023-02-02T07:06:21;12.50;;;6.38;;
21959;SDS011;11144;43.030;25.108;2023-02-02T07:07:56;16.95;;;7.82;;
21959;SDS011;11144;43.030;25.108;2023-02-02T07:09:30;21.23;;;10.00;;
21959;SDS011;11144;43.030;25.108;2023-02-02T07:11:04;23.08;;;10.32;;
21959;SDS011;11144;43.030;25.108;2023-02-02T07:12:46;25.38;;;11.77;;
21959;SDS011;11144;43.030;25.108;2023-02-02T07:14:20;20.13;;;9.45;;
21959;SDS011;11144;43.030;25.108;2023-02-02T07:15:54;13.65;;;7.10;;
21959;SDS011;11144;43.030;25.108;2023-02-02T07:17:29;12.23;;;6.82;;
21959;SDS011;11144;43.030;25.108;2023-02-02T07:19:02;16.77;;;8.15;;
21959;SDS011;11144;43.030;25.108;2023-02-02T07:20:36;17.77;;;7.47;;
21959;SDS011;11144;43.030;25.108;2023-02-02T07:22:09;19.90;;;8.52;;
21959;SDS011;11144;43.030;25.108;2023-02-02T07:23:42;16.17;;;9.88;;
21959;SDS011;11144;43.030;25.108;2023-02-02T07:25:16;22.55;;;10.65;;
21959;SDS011;11144;43.030;25.108;2023-02-02T07:26:49;21.00;;;8.40;;
21959;SDS011;11144;43.030;25.108;2023-02-02T07:28:22;12.73;;;6.40;;
21959;SDS011;11144;43.030;25.108;2023-02-02T07:29:57;12.23;;;5.47;;
21959;SDS011;11144;43.030;25.108;2023-02-02T07:31:30;16.95;;;5.72;;
21959;SDS011;11144;43.030;25.108;2023-02-02T07:33:06;13.07;;;7.00;;
21959;SDS011;11144;43.030;25.108;2023-02-02T07:34:40;50.80;;;22.83;;
21959;SDS011;11144;43.030;25.108;2023-02-02T07:36:17;16.73;;;9.60;;
21959;SDS011;11144;43.030;25.108;2023-02-02T07:37:54;12.57;;;5.82;;
21959;SDS011;11144;43.030;25.108;2023-02-02T07:39:27;11.45;;;6.30;;
21959;SDS011;11144;43.030;25.108;2023-02-02T07:41:01;13.18;;;6.68;;
21959;SDS011;11144;43.030;25.108;2023-02-02T07:42:34;24.42;;;13.70;;
21959;SDS011;11144;43.030;25.108;2023-02-02T07:44:09;10.35;;;6.57;;
21959;SDS011;11144;43.030;25.108;2023-02-02T07:45:47;13.32;;;6.03;;
21959;SDS011;11144;43.030;25.108;2023-02-02T07:47:20;14.77;;;6.68;;
21959;SDS011;11144;43.030;25.108;2023-02-02T07:48:53;9.82;;;5.20;;
21959;SDS011;11144;43.030;25.108;2023-02-02T07:50:28;20.42;;;11.57;;
21959;SDS011;11144;43.030;25.108;2023-02-02T07:52:02;13.73;;;6.95;;
21959;SDS011;11144;43.030;25.108;2023-02-02T07:53:35;16.15;;;7.35;;
21959;SDS011;11144;43.030;25.108;2023-02-02T07:55:08;25.40;;;13.07;;
21959;SDS011;11144;43.030;25.108;2023-02-02T07:56:56;34.45;;;16.30;;
21959;SDS011;11144;43.030;25.108;2023-02-02T07:58:31;18.73;;;9.38;;
21959;SDS011;11144;43.030;25.108;2023-02-02T08:00:05;25.75;;;13.07;;
21959;SDS011;11144;43.030;25.108;2023-02-02T08:01:44;35.25;;;20.05;;
21959;SDS011;11144;43.030;25.108;2023-02-02T08:03:17;38.05;;;19.98;;
21959;SDS011;11144;43.030;25.108;2023-02-02T08:04:50;17.65;;;10.23;;
21959;SDS011;11144;43.030;25.108;2023-02-02T08:06:24;20.63;;;11.77;;
21959;SDS011;11144;43.030;25.108;2023-02-02T08:08:00;10.65;;;6.80;;
21959;SDS011;11144;43.030;25.108;2023-02-02T08:09:33;10.02;;;7.25;;
21959;SDS011;11144;43.030;25.108;2023-02-02T08:11:07;12.10;;;8.05;;
21959;SDS011;11144;43.030;25.108;2023-02-02T08:12:41;18.52;;;10.50;;
21959;SDS011;11144;43.030;25.108;2023-02-02T08:14:15;19.73;;;10.10;;
21959;SDS011;11144;43.030;25.108;2023-02-02T08:15:48;30.90;;;14.23;;
21959;SDS011;11144;43.030;25.108;2023-02-02T08:17:23;32.38;;;15.80;;
21959;SDS011;11144;43.030;25.108;2023-02-02T08:18:56;26.42;;;13.75;;
21959;SDS011;11144;43.030;25.108;2023-02-02T08:20:30;43.33;;;21.75;;
21959;SDS011;11144;43.030;25.108;2023-02-02T08:22:03;71.18;;;30.98;;
21959;SDS011;11144;43.030;25.108;2023-02-02T08:23:37;52.22;;;23.40;;
21959;SDS011;11144;43.030;25.108;2023-02-02T08:25:11;69.63;;;31.10;;
21959;SDS011;11144;43.030;25.108;2023-02-02T08:26:44;54.17;;;24.60;;
21959;SDS011;11144;43.030;25.108;2023-02-02T08:28:18;34.65;;;15.48;;
21959;SDS011;11144;43.030;25.108;2023-02-02T08:29:51;29.83;;;15.65;;
21959;SDS011;11144;43.030;25.108;2023-02-02T08:31:26;13.20;;;7.85;;
21959;SDS011;11144;43.030;25.108;2023-02-02T08:33:02;24.42;;;13.43;;
21959;SDS011;11144;43.030;25.108;2023-02-02T08:34:36;26.42;;;13.55;;
21959;SDS011;11144;43.030;25.108;2023-02-02T08:36:10;8.52;;;5.13;;
21959;SDS011;11144;43.030;25.108;2023-02-02T08:37:46;5.55;;;3.28;;
21959;SDS011;11144;43.030;25.108;2023-02-02T08:39:19;7.80;;;3.20;;
21959;SDS011;11144;43.030;25.108;2023-02-02T08:40:53;4.70;;;3.95;;
21959;SDS011;11144;43.030;25.108;2023-02-02T08:42:26;3.03;;;2.00;;
21959;SDS011;11144;43.030;25.108;2023-02-02T08:43:59;3.58;;;1.48;;
21959;SDS011;11144;43.030;25.108;2023-02-02T08:45:33;5.43;;;1.70;;
21959;SDS011;11144;43.030;25.108;2023-02-02T08:47:27;3.17;;;1.77;;
21959;SDS011;11144;43.030;25.108;2023-02-02T08:49:02;3.72;;;1.95;;
21959;SDS011;11144;43.030;25.108;2023-02-02T08:50:35;3.58;;;2.13;;
21959;SDS011;11144;43.030;25.108;2023-02-02T08:52:09;1.67;;;1.25;;
21959;SDS011;11144;43.030;25.108;2023-02-02T08:53:42;2.58;;;1.13;;
21959;SDS011;11144;43.030;25.108;2023-02-02T08:55:15;2.53;;;1.10;;
21959;SDS011;11144;43.030;25.108;2023-02-02T08:56:48;3.75;;;1.92;;
21959;SDS011;11144;43.030;25.108;2023-02-02T08:58:22;4.38;;;1.30;;
21959;SDS011;11144;43.030;25.108;2023-02-02T08:59:55;3.83;;;1.20;;
21959;SDS011;11144;43.030;25.108;2023-02-02T09:01:29;5.40;;;1.98;;
21959;SDS011;11144;43.030;25.108;2023-02-02T09:03:03;3.42;;;1.58;;
21959;SDS011;11144;43.030;25.108;2023-02-02T09:04:38;2.33;;;1.30;;
21959;SDS011;11144;43.030;25.108;2023-02-02T09:06:13;2.25;;;0.90;;
21959;SDS011;11144;43.030;25.108;2023-02-02T09:07:48;3.45;;;1.67;;
21959;SDS011;11144;43.030;25.108;2023-02-02T09:09:21;3.70;;;1.67;;
21959;SDS011;11144;43.030;25.108;2023-02-02T09:10:54;4.25;;;2.25;;
21959;SDS011;11144;43.030;25.108;2023-02-02T09:12:28;3.10;;;1.48;;
21959;SDS011;11144;43.030;25.108;2023-02-02T09:14:01;4.70;;;1.40;;
21959;SDS011;11144;43.030;25.108;2023-02-02T09:15:37;3.20;;;1.50;;
21959;SDS011;11144;43.030;25.108;2023-02-02T09:17:12;5.43;;;2.38;;
21959;SDS011;11144;43.030;25.108;2023-02-02T09:18:46;3.90;;;1.98;;
21959;SDS011;11144;43.030;25.108;2023-02-02T09:20:21;6.32;;;3.38;;